createdAt,value
2023-03-30T00:01:44.814Z,100494.13
2023-03-30T00:04:13.338Z,100490.94
2023-03-30T00:06:42.429Z,100497.09
2023-03-30T00:09:10.847Z,100499.34
2023-03-30T00:11:38.767Z,100486.19
2023-03-30T00:14:06.776Z,100491.72
2023-03-30T00:16:36.222Z,100488.50
2023-03-30T00:19:04.257Z,100495.13
2023-03-30T00:21:32.204Z,100495.31
2023-03-30T00:24:00.184Z,100494.94
2023-03-30T00:26:28.455Z,100492.69
2023-03-30T00:28:56.501Z,100498.53
2023-03-30T00:31:24.492Z,100494.38
2023-03-30T00:33:53.807Z,100497.97
2023-03-30T00:36:22.486Z,100501.94
2023-03-30T00:38:50.562Z,100497.03
2023-03-30T00:41:18.552Z,100500.72
2023-03-30T00:43:56.976Z,100493.63
2023-03-30T00:46:25.031Z,100485.16
2023-03-30T00:48:57.828Z,100490.03
2023-03-30T00:51:26.515Z,100488.34
2023-03-30T00:53:55.900Z,100493.44
2023-03-30T00:56:27.184Z,100492.41
2023-03-30T00:58:55.351Z,100494.28
2023-03-30T01:01:29.111Z,100494.78
2023-03-30T01:04:00.043Z,100501.16
2023-03-30T01:06:30.225Z,100493.25
2023-03-30T01:08:59.038Z,100507.78
2023-03-30T01:11:27.811Z,100499.56
2023-03-30T01:13:59.363Z,100500.84
2023-03-30T01:16:29.505Z,100501.13
2023-03-30T01:19:02.062Z,100475.19
2023-03-30T01:21:51.439Z,100503.78
2023-03-30T01:24:53.498Z,100504.25
2023-03-30T01:27:46.310Z,100508.50
2023-03-30T01:30:38.316Z,100493.69
2023-03-30T01:33:21.558Z,100503.41
2023-03-30T01:36:28.596Z,100498.31
2023-03-30T01:39:35.152Z,100503.38
2023-03-30T01:42:06.456Z,100501.78
2023-03-30T01:44:37.523Z,100498.44
2023-03-30T01:47:08.718Z,100494.47
2023-03-30T01:49:40.708Z,100492.97
2023-03-30T01:52:13.102Z,100512.78
2023-03-30T01:54:44.230Z,100511.25
2023-03-30T01:57:14.297Z,100519.53
2023-03-30T01:59:44.368Z,100510.84
2023-03-30T02:02:12.406Z,100515.38
2023-03-30T02:04:41.959Z,100518.28
2023-03-30T02:07:11.780Z,100517.59
2023-03-30T02:09:40.059Z,100521.16
2023-03-30T02:12:09.527Z,100518.53
2023-03-30T02:14:37.613Z,100524.66
2023-03-30T02:17:07.544Z,100523.81
2023-03-30T02:19:37.952Z,100523.81
2023-03-30T02:22:06.384Z,100529.09
2023-03-30T02:24:34.304Z,100535.13
2023-03-30T02:27:02.736Z,100534.56
2023-03-30T02:29:32.026Z,100533.88
2023-03-30T02:32:00.124Z,100528.75
2023-03-30T02:34:38.360Z,100531.75
2023-03-30T02:37:14.703Z,100541.53
2023-03-30T02:39:48.966Z,100541.38
2023-03-30T02:42:27.166Z,100542.38
2023-03-30T02:45:01.205Z,100536.94
2023-03-30T02:47:32.346Z,100537.13
2023-03-30T02:50:01.601Z,100541.47
2023-03-30T02:52:40.876Z,100542.66
2023-03-30T02:55:14.516Z,100535.78
2023-03-30T02:57:47.858Z,100549.38
2023-03-30T03:00:18.738Z,100550.91
2023-03-30T03:02:49.421Z,100548.44
2023-03-30T03:05:17.605Z,100560.34
2023-03-30T03:07:48.177Z,100555.84
2023-03-30T03:10:16.227Z,100556.75
2023-03-30T03:12:44.213Z,100556.19
2023-03-30T03:15:13.902Z,100558.72
2023-03-30T03:17:45.386Z,100563.13
2023-03-30T03:20:13.864Z,100564.84
2023-03-30T03:22:41.831Z,100566.53
2023-03-30T03:25:10.490Z,100567.47
2023-03-30T03:27:38.452Z,100561.34
2023-03-30T03:30:07.225Z,100565.03
2023-03-30T03:32:35.241Z,100568.78
2023-03-30T03:35:04.856Z,100556.72
2023-03-30T03:37:33.243Z,100568.94
2023-03-30T03:40:01.252Z,100570.06
2023-03-30T03:42:29.216Z,100570.13
2023-03-30T03:44:57.195Z,100576.25
2023-03-30T03:47:25.297Z,100580.19
2023-03-30T03:49:53.308Z,100585.47
2023-03-30T03:52:22.743Z,100576.94
2023-03-30T03:54:50.673Z,100588.41
2023-03-30T03:57:18.675Z,100588.69
2023-03-30T03:59:46.735Z,100578.28
2023-03-30T04:02:14.686Z,100590.63
2023-03-30T04:04:42.711Z,100587.97
2023-03-30T04:07:11.744Z,100588.75
2023-03-30T04:09:41.096Z,100594.81
2023-03-30T04:12:09.138Z,100595.75
2023-03-30T04:14:37.124Z,100595.56
2023-03-30T04:17:06.512Z,100606.78
2023-03-30T04:19:36.200Z,100598.22
2023-03-30T04:22:06.286Z,100601.44
2023-03-30T04:24:35.627Z,100603.16
2023-03-30T04:27:05.152Z,100607.56
2023-03-30T04:29:33.178Z,100618.81
2023-03-30T04:32:03.773Z,100610.53
2023-03-30T04:34:31.768Z,100622.19
2023-03-30T04:36:59.668Z,100621.34
2023-03-30T04:39:30.444Z,100630.72
2023-03-30T04:41:58.486Z,100635.66
2023-03-30T04:44:27.823Z,100634.81
2023-03-30T04:46:56.547Z,100637.03
2023-03-30T04:49:24.466Z,100641.44
2023-03-30T04:51:53.164Z,100643.13
2023-03-30T04:54:21.392Z,100644.78
2023-03-30T04:56:49.657Z,100643.03
2023-03-30T04:59:17.665Z,100639.22
2023-03-30T05:01:47.085Z,100654.63
2023-03-30T05:04:15.131Z,100654.34
2023-03-30T05:06:44.267Z,100651.88
2023-03-30T05:09:12.259Z,100651.47
2023-03-30T05:11:40.171Z,100651.84
2023-03-30T05:14:08.210Z,100649.19
2023-03-30T05:16:36.797Z,100659.38
2023-03-30T05:19:06.201Z,100657.81
2023-03-30T05:21:34.156Z,100653.06
2023-03-30T05:24:02.123Z,100654.03
2023-03-30T05:26:30.080Z,100657.59
2023-03-30T05:28:58.116Z,100663.78
2023-03-30T05:31:26.139Z,100661.63
2023-03-30T05:33:54.727Z,100669.69
2023-03-30T05:36:24.108Z,100667.97
2023-03-30T05:38:52.561Z,100663.66
2023-03-30T05:41:20.674Z,100665.59
2023-03-30T05:43:49.153Z,100671.16
2023-03-30T05:46:17.353Z,100661.66
2023-03-30T05:48:45.473Z,100674.78
2023-03-30T05:51:13.430Z,100683.63
2023-03-30T05:53:42.717Z,100676.59
2023-03-30T05:56:11.580Z,100678.00
2023-03-30T05:58:39.611Z,100682.41
2023-03-30T06:01:09.466Z,100679.63
2023-03-30T06:03:39.164Z,100677.44
2023-03-30T06:06:08.010Z,100676.56
2023-03-30T06:08:36.166Z,100676.25
2023-03-30T06:11:06.259Z,100682.03
2023-03-30T06:13:34.437Z,100684.00
2023-03-30T06:16:03.680Z,100685.91
2023-03-30T06:18:31.891Z,100681.97
2023-03-30T06:21:02.538Z,100686.06
2023-03-30T06:23:31.109Z,100694.19
2023-03-30T06:25:59.634Z,100694.53
2023-03-30T06:28:28.994Z,100692.09
2023-03-30T06:30:56.956Z,100694.13
2023-03-30T06:33:26.056Z,100695.44
2023-03-30T06:35:54.415Z,100700.63
2023-03-30T06:38:22.817Z,100700.53
2023-03-30T06:40:51.408Z,100701.34
2023-03-30T06:43:20.593Z,100692.16
2023-03-30T06:45:53.081Z,100702.88
2023-03-30T06:48:22.568Z,100703.16
2023-03-30T06:50:50.598Z,100703.06
2023-03-30T06:53:18.585Z,100694.50
2023-03-30T06:55:46.595Z,100683.06
2023-03-30T06:58:14.545Z,100701.00
2023-03-30T07:00:42.658Z,100698.25
2023-03-30T07:03:12.022Z,100698.47
2023-03-30T07:05:40.491Z,100693.50
2023-03-30T07:08:08.612Z,100695.38
2023-03-30T07:10:36.577Z,100693.81
2023-03-30T07:13:04.697Z,100696.59
2023-03-30T07:15:32.668Z,100699.03
2023-03-30T07:18:00.699Z,100697.19
2023-03-30T07:20:30.082Z,100694.81
2023-03-30T07:22:58.100Z,100694.63
2023-03-30T07:25:26.694Z,100698.50
2023-03-30T07:27:54.633Z,100704.63
2023-03-30T07:30:23.036Z,100694.34
2023-03-30T07:32:51.477Z,100691.63
2023-03-30T07:35:19.616Z,100698.22
2023-03-30T07:37:51.049Z,100699.06
2023-03-30T07:40:19.549Z,100706.31
2023-03-30T07:42:47.910Z,100704.47
2023-03-30T07:45:16.689Z,100700.72
2023-03-30T07:47:44.750Z,100702.78
2023-03-30T07:50:12.933Z,100693.78
2023-03-30T07:52:40.852Z,100684.38
2023-03-30T07:55:11.125Z,100679.97
2023-03-30T07:57:39.151Z,100677.09
2023-03-30T08:00:10.412Z,100675.81
2023-03-30T08:02:39.069Z,100678.81
2023-03-30T08:05:07.753Z,100672.88
2023-03-30T08:07:36.724Z,100685.63
2023-03-30T08:10:05.173Z,100682.41
2023-03-30T08:12:36.521Z,100678.97
2023-03-30T08:15:04.598Z,100667.50
2023-03-30T08:17:32.641Z,100666.16
2023-03-30T08:20:01.916Z,100657.56
2023-03-30T08:22:29.889Z,100663.28
2023-03-30T08:24:57.842Z,100663.47
2023-03-30T08:27:25.863Z,100657.41
2023-03-30T08:29:55.248Z,100662.13
2023-03-30T08:32:23.844Z,100643.25
2023-03-30T08:34:53.870Z,100641.22
2023-03-30T08:37:21.830Z,100646.28
2023-03-30T08:39:49.796Z,100643.59
2023-03-30T08:42:44.722Z,100656.72
2023-03-30T08:45:14.187Z,100647.13
2023-03-30T08:47:43.927Z,100646.75
2023-03-30T08:50:14.108Z,100640.09
2023-03-30T08:52:43.113Z,100641.69
2023-03-30T08:55:16.816Z,100633.97
2023-03-30T08:57:48.311Z,100629.91
2023-03-30T09:00:24.652Z,100628.69
2023-03-30T09:02:54.296Z,100623.63
2023-03-30T09:05:24.001Z,100626.16
2023-03-30T09:07:56.240Z,100618.00
2023-03-30T09:10:24.214Z,100613.09
2023-03-30T09:12:52.617Z,100613.09
2023-03-30T09:15:23.965Z,100609.59
2023-03-30T09:17:53.686Z,100611.84
2023-03-30T09:20:23.495Z,100606.00
2023-03-30T09:22:51.966Z,100602.97
2023-03-30T09:25:21.585Z,100595.03
2023-03-30T09:27:55.721Z,100583.56
2023-03-30T09:30:27.682Z,100583.84
2023-03-30T09:33:00.484Z,100577.03
2023-03-30T09:35:34.414Z,100580.84
2023-03-30T09:38:04.079Z,100580.81
2023-03-30T09:40:46.216Z,100584.56
2023-03-30T09:43:16.197Z,100577.94
2023-03-30T09:45:45.834Z,100577.16
2023-03-30T09:48:13.830Z,100568.25
2023-03-30T09:50:42.777Z,100568.25
2023-03-30T09:53:19.972Z,100565.41
2023-03-30T09:55:56.716Z,100553.13
2023-03-30T09:58:28.527Z,100544.19
2023-03-30T10:01:05.108Z,100537.38
2023-03-30T10:03:33.511Z,100540.94
2023-03-30T10:06:03.316Z,100544.38
2023-03-30T10:08:31.465Z,100536.13
2023-03-30T10:11:00.728Z,100537.38
2023-03-30T10:13:29.718Z,100538.50
2023-03-30T10:15:57.713Z,100522.50
2023-03-30T10:18:29.446Z,100524.25
2023-03-30T10:21:02.754Z,100525.69
2023-03-30T10:23:33.357Z,100511.16
2023-03-30T10:26:03.814Z,100509.25
2023-03-30T10:28:33.947Z,100513.34
2023-03-30T10:31:03.501Z,100494.66
2023-03-30T10:33:32.990Z,100503.91
2023-03-30T10:36:02.224Z,100502.81
2023-03-30T10:38:32.419Z,100498.47
2023-03-30T10:41:02.840Z,100489.81
2023-03-30T10:43:31.990Z,100495.22
2023-03-30T10:46:12.541Z,100494.88
2023-03-30T10:49:13.501Z,100479.56
2023-03-30T10:51:47.130Z,100476.53
2023-03-30T10:54:17.929Z,100472.72
2023-03-30T10:56:47.247Z,100471.94
2023-03-30T10:59:37.731Z,100459.44
2023-03-30T11:02:26.435Z,100468.53
2023-03-30T11:04:59.558Z,100463.88
2023-03-30T11:07:30.882Z,100454.59
2023-03-30T11:10:01.352Z,100434.59
2023-03-30T11:12:32.164Z,100459.81
2023-03-30T11:15:01.191Z,100449.63
2023-03-30T11:17:30.540Z,100443.94
2023-03-30T11:20:01.809Z,100434.91
2023-03-30T11:22:34.494Z,100439.50
2023-03-30T11:25:02.552Z,100426.91
2023-03-30T11:27:31.733Z,100431.13
2023-03-30T11:30:01.814Z,100430.25
2023-03-30T11:32:32.784Z,100428.50
2023-03-30T11:35:07.924Z,100408.47
2023-03-30T11:37:37.068Z,100420.31
2023-03-30T11:40:11.929Z,100399.59
2023-03-30T11:42:40.054Z,100401.25
2023-03-30T11:45:18.670Z,100391.53
2023-03-30T11:48:06.770Z,100390.81
2023-03-30T11:50:53.843Z,100399.03
2023-03-30T11:53:25.365Z,100387.13
2023-03-30T11:56:07.931Z,100388.25
2023-03-30T11:58:37.192Z,100373.75
2023-03-30T12:01:14.609Z,100379.66
2023-03-30T12:03:43.615Z,100370.72
2023-03-30T12:06:24.266Z,100370.91
2023-03-30T12:09:02.032Z,100364.22
2023-03-30T12:11:34.095Z,100368.81
2023-03-30T12:14:02.126Z,100368.84
2023-03-30T12:16:31.926Z,100362.06
2023-03-30T12:19:06.750Z,100369.06
2023-03-30T12:21:37.590Z,100359.97
2023-03-30T12:24:09.650Z,100360.53
2023-03-30T12:26:38.826Z,100367.06
2023-03-30T12:32:07.569Z,100355.78
2023-03-30T12:34:36.361Z,100354.88
2023-03-30T12:37:10.213Z,100347.41
2023-03-30T12:39:44.924Z,100342.44
2023-03-30T12:42:26.310Z,100334.16
2023-03-30T12:45:06.922Z,100326.06
2023-03-30T12:47:42.300Z,100307.72
2023-03-30T12:50:30.372Z,100310.19
2023-03-30T12:53:11.710Z,100303.81
2023-03-30T12:55:43.718Z,100299.06
2023-03-30T12:58:24.496Z,100276.44
2023-03-30T13:00:59.016Z,100274.50
2023-03-30T13:03:31.581Z,100269.59
2023-03-30T13:06:00.128Z,100264.16
2023-03-30T13:08:32.458Z,100257.63
2023-03-30T13:11:08.403Z,100262.69
2023-03-30T13:14:15.550Z,100247.69
2023-03-30T13:17:06.326Z,100251.75
2023-03-30T13:19:45.582Z,100238.97
2023-03-30T13:22:25.325Z,100240.38
2023-03-30T13:24:57.858Z,100239.72
2023-03-30T13:27:28.312Z,100227.38
2023-03-30T13:29:57.448Z,100235.22
2023-03-30T13:32:38.026Z,100223.66
2023-03-30T13:35:26.808Z,100220.06
2023-03-30T13:38:31.043Z,100223.47
2023-03-30T13:41:05.972Z,100201.19
2023-03-30T13:43:44.078Z,100209.53
2023-03-30T13:46:17.598Z,100213.00
2023-03-30T13:48:53.862Z,100212.28
2023-03-30T13:51:24.317Z,100201.09
2023-03-30T13:53:54.014Z,100205.59
2023-03-30T13:56:23.465Z,100190.41
2023-03-30T13:58:52.391Z,100176.38
2023-03-30T14:01:21.373Z,100180.63
2023-03-30T14:03:49.735Z,100185.38
2023-03-30T14:06:19.067Z,100192.28
2023-03-30T14:08:48.431Z,100188.03
2023-03-30T14:11:17.646Z,100178.78
2023-03-30T14:13:48.420Z,100185.50
2023-03-30T14:16:20.308Z,100178.41
2023-03-30T14:18:48.293Z,100176.22
2023-03-30T14:21:17.263Z,100172.56
2023-03-30T14:23:46.583Z,100164.03
2023-03-30T14:26:19.341Z,100166.56
2023-03-30T14:28:50.762Z,100161.53
2023-03-30T14:31:19.771Z,100159.94
2023-03-30T14:33:48.070Z,100162.59
2023-03-30T14:36:16.708Z,100158.81
2023-03-30T14:38:45.472Z,100158.81
2023-03-30T14:41:16.872Z,100156.91
2023-03-30T14:43:48.710Z,100153.53
2023-03-30T14:46:16.804Z,100151.75
2023-03-30T14:48:45.471Z,100153.41
2023-03-30T14:51:24.928Z,100146.56
2023-03-30T14:53:53.205Z,100152.59
2023-03-30T14:56:21.398Z,100147.69
2023-03-30T14:58:51.338Z,100150.78
2023-03-30T15:01:21.570Z,100132.41
2023-03-30T15:03:49.648Z,100152.16
2023-03-30T15:06:24.804Z,100148.06
2023-03-30T15:08:52.853Z,100133.25
2023-03-30T15:11:22.092Z,100121.44
2023-03-30T15:13:52.467Z,100149.91
2023-03-30T15:16:23.287Z,100151.03
2023-03-30T15:18:51.795Z,100142.91
2023-03-30T15:21:20.088Z,100130.00
2023-03-30T15:23:48.876Z,100140.91
2023-03-30T15:26:16.824Z,100141.75
2023-03-30T15:28:45.657Z,100137.91
2023-03-30T15:31:16.230Z,100134.56
2023-03-30T15:33:45.234Z,100134.66
2023-03-30T15:36:14.197Z,100127.59
2023-03-30T15:38:47.815Z,100117.25
2023-03-30T15:41:16.162Z,100117.81
2023-03-30T15:43:57.598Z,100117.06
2023-03-30T15:46:28.094Z,100109.72
2023-03-30T15:48:56.296Z,100113.81
2023-03-30T15:51:27.688Z,100109.44
2023-03-30T15:53:56.749Z,100104.59
2023-03-30T15:56:26.808Z,100106.44
2023-03-30T15:58:54.878Z,100099.66
2023-03-30T16:01:23.435Z,100102.06
2023-03-30T16:03:55.604Z,100097.44
2023-03-30T16:06:23.626Z,100105.88
2023-03-30T16:08:51.565Z,100101.00
2023-03-30T16:11:20.879Z,100099.88
2023-03-30T16:13:49.434Z,100094.25
2023-03-30T16:16:18.591Z,100090.13
2023-03-30T16:18:46.724Z,100093.28
2023-03-30T16:21:16.122Z,100088.34
2023-03-30T16:23:44.059Z,100082.03
2023-03-30T16:26:12.490Z,100090.50
2023-03-30T16:28:42.670Z,100089.56
2023-03-30T16:31:14.154Z,100087.25
2023-03-30T16:33:42.124Z,100086.00
2023-03-30T16:36:12.423Z,100085.03
2023-03-30T16:38:41.837Z,100092.66
2023-03-30T16:41:11.360Z,100089.84
2023-03-30T16:43:39.322Z,100088.53
2023-03-30T16:46:07.389Z,100096.63
2023-03-30T16:48:35.544Z,100093.63
2023-03-30T16:51:03.655Z,100095.97
2023-03-30T16:53:32.025Z,100092.94
2023-03-30T16:56:01.387Z,100081.88
2023-03-30T16:58:29.529Z,100027.50
2023-03-30T17:01:03.924Z,100082.38
2023-03-30T17:03:32.607Z,100076.47
2023-03-30T17:06:00.606Z,100081.53
2023-03-30T17:08:29.158Z,100083.50
2023-03-30T17:10:58.443Z,100087.50
2023-03-30T17:13:27.834Z,100085.97
2023-03-30T17:15:55.924Z,100086.41
2023-03-30T17:18:24.379Z,100088.56
2023-03-30T17:20:53.112Z,100079.97
2023-03-30T17:23:21.567Z,100090.28
2023-03-30T17:25:49.702Z,100086.22
2023-03-30T17:28:21.293Z,100088.00
2023-03-30T17:30:51.058Z,100090.63
2023-03-30T17:33:19.045Z,100039.34
2023-03-30T17:35:48.284Z,100071.91
2023-03-30T17:38:16.368Z,100086.66
2023-03-30T17:40:44.867Z,100088.81
2023-03-30T17:43:12.854Z,100076.22
2023-03-30T17:45:41.073Z,100089.25
2023-03-30T17:48:13.748Z,100091.53
2023-03-30T17:50:43.631Z,100090.19
2023-03-30T17:53:13.411Z,100091.81
2023-03-30T17:55:41.418Z,100088.50
2023-03-30T17:58:14.989Z,100093.31
2023-03-30T18:00:42.972Z,100085.41
2023-03-30T18:03:12.363Z,100082.53
2023-03-30T18:05:40.371Z,100084.38
2023-03-30T18:08:11.293Z,100071.44
2023-03-30T18:10:40.024Z,100069.78
2023-03-30T18:13:07.989Z,100077.03
2023-03-30T18:15:35.928Z,100064.69
2023-03-30T18:18:03.991Z,100069.91
2023-03-30T18:20:34.223Z,100070.09
2023-03-30T18:23:02.141Z,100065.50
2023-03-30T18:25:32.750Z,100067.06
2023-03-30T18:28:01.278Z,100064.59
2023-03-30T18:30:29.995Z,100062.16
2023-03-30T18:32:58.160Z,100057.84
2023-03-30T18:35:26.932Z,100051.84
2023-03-30T18:37:56.314Z,100055.75
2023-03-30T18:40:26.396Z,100054.41
2023-03-30T18:42:54.825Z,100050.06
2023-03-30T18:45:23.857Z,100045.22
2023-03-30T18:47:51.820Z,100039.72
2023-03-30T18:50:22.211Z,100035.06
2023-03-30T18:52:50.159Z,100044.44
2023-03-30T18:55:19.696Z,100051.16
2023-03-30T18:57:47.647Z,100057.88
2023-03-30T19:00:21.560Z,100052.16
2023-03-30T19:02:49.932Z,100052.84
2023-03-30T19:05:19.042Z,100049.16
2023-03-30T19:07:47.002Z,100032.41
2023-03-30T19:10:15.930Z,100028.34
2023-03-30T19:12:45.682Z,100034.88
2023-03-30T19:15:19.174Z,100030.34
2023-03-30T19:17:47.529Z,100028.03
2023-03-30T19:20:15.876Z,100028.22
2023-03-30T19:22:43.842Z,100023.03
2023-03-30T19:25:12.081Z,100014.97
2023-03-30T19:27:46.485Z,100009.66
2023-03-30T19:30:22.237Z,100011.69
2023-03-30T19:32:50.913Z,99992.06
2023-03-30T19:35:18.977Z,100002.50
2023-03-30T19:37:47.224Z,99996.28
2023-03-30T19:40:16.370Z,99982.38
2023-03-30T19:42:44.340Z,99994.63
2023-03-30T19:45:12.856Z,99996.31
2023-03-30T19:47:43.716Z,99986.91
2023-03-30T19:50:15.440Z,99976.16
2023-03-30T19:52:43.624Z,99970.78
2023-03-30T19:55:11.692Z,99963.91
2023-03-30T19:57:39.662Z,99976.16
2023-03-30T20:00:12.656Z,99973.31
2023-03-30T20:02:42.222Z,99958.56
2023-03-30T20:05:12.999Z,99955.00
2023-03-30T20:07:41.110Z,99938.91
2023-03-30T20:10:11.246Z,99944.94
2023-03-30T20:12:39.566Z,99959.03
2023-03-30T20:15:09.578Z,99961.06
2023-03-30T20:17:38.789Z,99946.63
2023-03-30T20:20:10.735Z,99954.13
2023-03-30T20:22:40.671Z,99950.59
2023-03-30T20:25:13.404Z,99945.38
2023-03-30T20:27:41.574Z,99943.88
2023-03-30T20:30:11.772Z,99934.97
2023-03-30T20:32:40.082Z,99928.59
2023-03-30T20:35:10.205Z,99922.38
2023-03-30T20:37:38.161Z,99924.22
2023-03-30T20:40:09.960Z,99919.38
2023-03-30T20:42:40.012Z,99911.47
2023-03-30T20:45:09.422Z,99918.03
2023-03-30T20:47:37.430Z,99908.16
2023-03-30T20:50:05.850Z,99896.03
2023-03-30T20:52:35.144Z,99899.75
2023-03-30T20:55:03.142Z,99897.09
2023-03-30T20:57:31.319Z,99895.25
2023-03-30T21:00:00.772Z,99891.06
2023-03-30T21:02:30.377Z,99883.88
2023-03-30T21:04:59.856Z,99881.34
2023-03-30T21:07:27.796Z,99874.50
2023-03-30T21:09:57.125Z,99873.84
2023-03-30T21:12:25.104Z,99875.19
2023-03-30T21:14:53.084Z,99885.09
2023-03-30T21:17:21.887Z,99885.91
2023-03-30T21:19:49.871Z,99881.56
2023-03-30T21:22:18.996Z,99876.19
2023-03-30T21:24:46.912Z,99860.25
2023-03-30T21:27:16.308Z,99863.47
2023-03-30T21:29:44.286Z,99854.22
2023-03-30T21:32:12.211Z,99848.50
2023-03-30T21:34:40.106Z,99844.41
2023-03-30T21:37:08.138Z,99837.78
2023-03-30T21:39:36.174Z,99836.38
2023-03-30T21:42:05.310Z,99833.00
2023-03-30T21:44:36.222Z,99833.47
2023-03-30T21:47:04.227Z,99840.69
2023-03-30T21:49:33.066Z,99835.69
2023-03-30T21:52:01.077Z,99827.66
2023-03-30T21:54:29.025Z,99822.03
2023-03-30T21:56:57.005Z,99814.38
2023-03-30T21:59:24.975Z,99806.97
2023-03-30T22:01:54.317Z,99804.94
2023-03-30T22:04:22.294Z,99796.91
2023-03-30T22:06:50.498Z,99785.19
2023-03-30T22:09:18.461Z,99786.25
2023-03-30T22:11:46.535Z,99798.31
2023-03-30T22:14:14.487Z,99794.47
2023-03-30T22:16:42.805Z,99807.44
2023-03-30T22:19:12.246Z,99802.75
2023-03-30T22:21:40.168Z,99800.13
2023-03-30T22:24:08.777Z,99797.19
2023-03-30T22:26:36.820Z,99786.16
2023-03-30T22:29:04.936Z,99780.53
2023-03-30T22:31:32.981Z,99792.72
2023-03-30T22:34:01.053Z,99787.06
2023-03-30T22:36:30.970Z,99785.75
2023-03-30T22:38:59.286Z,99789.09
2023-03-30T22:41:27.200Z,99782.38
2023-03-30T22:43:56.205Z,99793.59
2023-03-30T22:46:24.289Z,99795.72
2023-03-30T22:48:55.754Z,99794.72
2023-03-30T22:51:26.405Z,99786.59
2023-03-30T22:53:56.483Z,99788.28
2023-03-30T22:56:24.405Z,99785.13
2023-03-30T22:58:52.505Z,99795.47
2023-03-30T23:01:21.567Z,99785.59
2023-03-30T23:03:49.669Z,99786.59
2023-03-30T23:06:19.208Z,99774.19
2023-03-30T23:08:48.620Z,99775.69
2023-03-30T23:11:21.563Z,99773.50
2023-03-30T23:13:49.638Z,99767.44
2023-03-30T23:16:17.571Z,99768.41
2023-03-30T23:18:45.528Z,99756.97
2023-03-30T23:21:14.144Z,99759.78
2023-03-30T23:23:42.275Z,99755.56
2023-03-30T23:26:10.870Z,99752.81
2023-03-30T23:28:41.819Z,99758.81
2023-03-30T23:31:10.686Z,99759.47
2023-03-30T23:33:38.800Z,99756.16
2023-03-30T23:36:08.100Z,99751.47
2023-03-30T23:38:37.561Z,99749.50
2023-03-30T23:41:06.086Z,99735.75
2023-03-30T23:43:34.054Z,99737.28
2023-03-30T23:46:03.521Z,99727.69
2023-03-30T23:48:31.859Z,99717.66
2023-03-30T23:50:59.857Z,99721.63
2023-03-30T23:53:27.775Z,99713.56
2023-03-30T23:55:55.748Z,99710.53
2023-03-30T23:58:23.704Z,99701.78
